sensor_id;sensor_type;location;lat;lon;timestamp;P1;durP1;ratioP1;P2;durP2;ratioP2
44987;SDS011;35735;52.226;21.254;2023-07-22T00:03:16;6.65;;;4.57;;
44987;SDS011;35735;52.226;21.254;2023-07-22T00:08:16;5.82;;;4.47;;
44987;SDS011;35735;52.226;21.254;2023-07-22T00:13:17;4.47;;;4.07;;
44987;SDS011;35735;52.226;21.254;2023-07-22T00:18:18;4.90;;;4.40;;
44987;SDS011;35735;52.226;21.254;2023-07-22T00:23:18;4.40;;;4.00;;
44987;SDS011;35735;52.226;21.254;2023-07-22T00:28:19;4.50;;;3.80;;
44987;SDS011;35735;52.226;21.254;2023-07-22T00:33:19;5.47;;;3.80;;
44987;SDS011;35735;52.226;21.254;2023-07-22T00:38:20;4.82;;;4.32;;
44987;SDS011;35735;52.226;21.254;2023-07-22T00:43:21;5.62;;;4.45;;
44987;SDS011;35735;52.226;21.254;2023-07-22T00:48:21;4.87;;;4.00;;
44987;SDS011;35735;52.226;21.254;2023-07-22T00:53:22;6.40;;;4.40;;
44987;SDS011;35735;52.226;21.254;2023-07-22T00:58:23;5.00;;;4.50;;
44987;SDS011;35735;52.226;21.254;2023-07-22T01:03:26;6.18;;;4.35;;
44987;SDS011;35735;52.226;21.254;2023-07-22T01:08:27;6.90;;;4.50;;
44987;SDS011;35735;52.226;21.254;2023-07-22T01:13:27;4.87;;;4.10;;
44987;SDS011;35735;52.226;21.254;2023-07-22T01:18:28;5.03;;;4.15;;
44987;SDS011;35735;52.226;21.254;2023-07-22T01:23:28;4.70;;;4.07;;
44987;SDS011;35735;52.226;21.254;2023-07-22T01:28:29;4.82;;;4.35;;
44987;SDS011;35735;52.226;21.254;2023-07-22T01:33:30;6.07;;;4.37;;
44987;SDS011;35735;52.226;21.254;2023-07-22T01:38:30;6.30;;;4.40;;
44987;SDS011;35735;52.226;21.254;2023-07-22T01:43:31;4.93;;;4.40;;
44987;SDS011;35735;52.226;21.254;2023-07-22T01:48:32;6.00;;;4.18;;
44987;SDS011;35735;52.226;21.254;2023-07-22T01:53:32;5.60;;;4.87;;
44987;SDS011;35735;52.226;21.254;2023-07-22T01:58:33;5.12;;;4.62;;
44987;SDS011;35735;52.226;21.254;2023-07-22T02:03:33;5.18;;;4.78;;
44987;SDS011;35735;52.226;21.254;2023-07-22T02:08:34;5.05;;;4.40;;
44987;SDS011;35735;52.226;21.254;2023-07-22T02:13:35;4.90;;;4.40;;
44987;SDS011;35735;52.226;21.254;2023-07-22T02:18:35;4.80;;;4.30;;
44987;SDS011;35735;52.226;21.254;2023-07-22T02:23:36;5.22;;;4.72;;
44987;SDS011;35735;52.226;21.254;2023-07-22T02:28:36;5.43;;;4.93;;
44987;SDS011;35735;52.226;21.254;2023-07-22T02:33:37;5.47;;;4.97;;
44987;SDS011;35735;52.226;21.254;2023-07-22T02:38:38;5.15;;;4.65;;
44987;SDS011;35735;52.226;21.254;2023-07-22T02:43:38;6.45;;;4.55;;
44987;SDS011;35735;52.226;21.254;2023-07-22T02:48:39;5.65;;;4.97;;
44987;SDS011;35735;52.226;21.254;2023-07-22T02:53:39;6.10;;;5.40;;
44987;SDS011;35735;52.226;21.254;2023-07-22T02:58:40;6.35;;;5.72;;
44987;SDS011;35735;52.226;21.254;2023-07-22T03:03:40;6.35;;;5.75;;
44987;SDS011;35735;52.226;21.254;2023-07-22T03:08:41;7.68;;;5.72;;
44987;SDS011;35735;52.226;21.254;2023-07-22T03:13:41;6.28;;;5.28;;
44987;SDS011;35735;52.226;21.254;2023-07-22T03:18:42;6.03;;;5.50;;
44987;SDS011;35735;52.226;21.254;2023-07-22T03:23:42;7.28;;;5.95;;
44987;SDS011;35735;52.226;21.254;2023-07-22T03:28:43;7.07;;;5.75;;
44987;SDS011;35735;52.226;21.254;2023-07-22T03:33:44;6.78;;;6.15;;
44987;SDS011;35735;52.226;21.254;2023-07-22T03:38:44;7.62;;;6.35;;
44987;SDS011;35735;52.226;21.254;2023-07-22T03:43:45;10.02;;;6.35;;
44987;SDS011;35735;52.226;21.254;2023-07-22T03:48:45;8.63;;;6.00;;
44987;SDS011;35735;52.226;21.254;2023-07-22T03:53:46;7.12;;;6.43;;
44987;SDS011;35735;52.226;21.254;2023-07-22T03:58:46;6.85;;;6.22;;
44987;SDS011;35735;52.226;21.254;2023-07-22T04:03:47;8.23;;;7.43;;
44987;SDS011;35735;52.226;21.254;2023-07-22T04:08:48;7.18;;;6.47;;
44987;SDS011;35735;52.226;21.254;2023-07-22T04:13:48;7.07;;;6.37;;
44987;SDS011;35735;52.226;21.254;2023-07-22T04:18:49;7.43;;;6.80;;
44987;SDS011;35735;52.226;21.254;2023-07-22T04:23:49;8.65;;;6.97;;
44987;SDS011;35735;52.226;21.254;2023-07-22T04:28:50;7.72;;;6.97;;
44987;SDS011;35735;52.226;21.254;2023-07-22T04:33:50;7.75;;;6.95;;
44987;SDS011;35735;52.226;21.254;2023-07-22T04:38:51;9.00;;;6.85;;
44987;SDS011;35735;52.226;21.254;2023-07-22T04:43:52;8.30;;;7.03;;
44987;SDS011;35735;52.226;21.254;2023-07-22T04:48:56;8.40;;;7.60;;
44987;SDS011;35735;52.226;21.254;2023-07-22T04:53:56;11.40;;;7.70;;
44987;SDS011;35735;52.226;21.254;2023-07-22T04:58:57;7.65;;;6.90;;
44987;SDS011;35735;52.226;21.254;2023-07-22T05:03:57;7.75;;;6.82;;
44987;SDS011;35735;52.226;21.254;2023-07-22T05:08:58;8.35;;;7.55;;
44987;SDS011;35735;52.226;21.254;2023-07-22T05:13:58;7.43;;;6.72;;
44987;SDS011;35735;52.226;21.254;2023-07-22T05:18:59;8.32;;;6.82;;
44987;SDS011;35735;52.226;21.254;2023-07-22T05:24:00;8.38;;;7.07;;
44987;SDS011;35735;52.226;21.254;2023-07-22T05:29:00;7.22;;;6.53;;
44987;SDS011;35735;52.226;21.254;2023-07-22T05:34:01;8.00;;;6.82;;
44987;SDS011;35735;52.226;21.254;2023-07-22T05:39:01;7.93;;;6.85;;
44987;SDS011;35735;52.226;21.254;2023-07-22T05:44:02;11.93;;;6.53;;
44987;SDS011;35735;52.226;21.254;2023-07-22T05:49:03;6.47;;;5.87;;
44987;SDS011;35735;52.226;21.254;2023-07-22T05:54:05;8.75;;;6.45;;
44987;SDS011;35735;52.226;21.254;2023-07-22T05:59:06;7.70;;;5.75;;
44987;SDS011;35735;52.226;21.254;2023-07-22T06:04:07;5.82;;;5.22;;
44987;SDS011;35735;52.226;21.254;2023-07-22T06:09:07;6.40;;;4.95;;
44987;SDS011;35735;52.226;21.254;2023-07-22T06:14:08;5.50;;;5.00;;
44987;SDS011;35735;52.226;21.254;2023-07-22T06:19:09;8.27;;;5.03;;
44987;SDS011;35735;52.226;21.254;2023-07-22T06:24:09;5.85;;;4.60;;
44987;SDS011;35735;52.226;21.254;2023-07-22T06:29:10;6.90;;;5.10;;
44987;SDS011;35735;52.226;21.254;2023-07-22T06:34:10;5.05;;;4.37;;
44987;SDS011;35735;52.226;21.254;2023-07-22T06:39:11;6.37;;;4.43;;
44987;SDS011;35735;52.226;21.254;2023-07-22T06:44:11;4.50;;;4.07;;
44987;SDS011;35735;52.226;21.254;2023-07-22T06:49:12;4.62;;;4.05;;
44987;SDS011;35735;52.226;21.254;2023-07-22T06:54:12;4.30;;;3.87;;
44987;SDS011;35735;52.226;21.254;2023-07-22T06:59:13;4.85;;;3.30;;
44987;SDS011;35735;52.226;21.254;2023-07-22T07:04:14;5.45;;;3.65;;
44987;SDS011;35735;52.226;21.254;2023-07-22T07:09:14;10.30;;;3.35;;
44987;SDS011;35735;52.226;21.254;2023-07-22T07:14:15;3.00;;;2.70;;
44987;SDS011;35735;52.226;21.254;2023-07-22T07:19:15;2.78;;;2.58;;
44987;SDS011;35735;52.226;21.254;2023-07-22T07:24:16;4.20;;;3.00;;
44987;SDS011;35735;52.226;21.254;2023-07-22T07:29:17;4.93;;;2.80;;
44987;SDS011;35735;52.226;21.254;2023-07-22T07:34:17;4.72;;;2.40;;
44987;SDS011;35735;52.226;21.254;2023-07-22T07:39:18;2.75;;;2.40;;
44987;SDS011;35735;52.226;21.254;2023-07-22T07:44:18;2.50;;;2.30;;
44987;SDS011;35735;52.226;21.254;2023-07-22T07:49:19;5.22;;;2.55;;
44987;SDS011;35735;52.226;21.254;2023-07-22T07:54:20;3.78;;;2.28;;
44987;SDS011;35735;52.226;21.254;2023-07-22T07:59:20;6.07;;;3.12;;
44987;SDS011;35735;52.226;21.254;2023-07-22T08:04:21;5.05;;;2.83;;
44987;SDS011;35735;52.226;21.254;2023-07-22T08:09:22;6.07;;;2.97;;
44987;SDS011;35735;52.226;21.254;2023-07-22T08:14:22;5.03;;;2.45;;
44987;SDS011;35735;52.226;21.254;2023-07-22T08:19:23;6.28;;;2.62;;
44987;SDS011;35735;52.226;21.254;2023-07-22T08:24:23;3.20;;;2.47;;
44987;SDS011;35735;52.226;21.254;2023-07-22T08:29:24;4.18;;;2.40;;
44987;SDS011;35735;52.226;21.254;2023-07-22T08:34:25;5.55;;;2.45;;
44987;SDS011;35735;52.226;21.254;2023-07-22T08:39:25;6.70;;;2.85;;
44987;SDS011;35735;52.226;21.254;2023-07-22T08:44:26;4.87;;;2.40;;
44987;SDS011;35735;52.226;21.254;2023-07-22T08:49:32;9.98;;;2.80;;
44987;SDS011;35735;52.226;21.254;2023-07-22T08:54:33;4.82;;;2.50;;
44987;SDS011;35735;52.226;21.254;2023-07-22T08:59:34;13.62;;;2.30;;
44987;SDS011;35735;52.226;21.254;2023-07-22T09:04:35;7.00;;;2.30;;
44987;SDS011;35735;52.226;21.254;2023-07-22T09:09:36;6.22;;;2.10;;
44987;SDS011;35735;52.226;21.254;2023-07-22T09:14:36;4.15;;;1.90;;
44987;SDS011;35735;52.226;21.254;2023-07-22T09:19:38;7.32;;;1.83;;
44987;SDS011;35735;52.226;21.254;2023-07-22T09:24:39;3.20;;;1.77;;
44987;SDS011;35735;52.226;21.254;2023-07-22T09:29:40;9.38;;;1.98;;
44987;SDS011;35735;52.226;21.254;2023-07-22T09:34:53;7.95;;;2.12;;
44987;SDS011;35735;52.226;21.254;2023-07-22T09:39:55;3.17;;;2.00;;
44987;SDS011;35735;52.226;21.254;2023-07-22T09:44:55;4.07;;;2.00;;
44987;SDS011;35735;52.226;21.254;2023-07-22T09:49:56;5.85;;;2.20;;
44987;SDS011;35735;52.226;21.254;2023-07-22T09:54:58;2.72;;;2.08;;
44987;SDS011;35735;52.226;21.254;2023-07-22T09:59:59;5.28;;;1.92;;
44987;SDS011;35735;52.226;21.254;2023-07-22T10:05:00;3.50;;;2.00;;
44987;SDS011;35735;52.226;21.254;2023-07-22T10:10:02;5.70;;;2.08;;
44987;SDS011;35735;52.226;21.254;2023-07-22T10:15:03;7.32;;;2.20;;
44987;SDS011;35735;52.226;21.254;2023-07-22T10:20:05;3.50;;;1.83;;
44987;SDS011;35735;52.226;21.254;2023-07-22T10:25:19;2.60;;;1.70;;
44987;SDS011;35735;52.226;21.254;2023-07-22T10:30:21;2.10;;;1.75;;
44987;SDS011;35735;52.226;21.254;2023-07-22T10:40:26;2.78;;;1.50;;
44987;SDS011;35735;52.226;21.254;2023-07-22T10:45:32;2.53;;;1.90;;
44987;SDS011;35735;52.226;21.254;2023-07-22T10:50:46;1.75;;;1.50;;
44987;SDS011;35735;52.226;21.254;2023-07-22T11:06:29;2.25;;;1.40;;
44987;SDS011;35735;52.226;21.254;2023-07-22T11:11:36;5.20;;;1.23;;
44987;SDS011;35735;52.226;21.254;2023-07-22T11:16:45;2.47;;;1.30;;
44987;SDS011;35735;52.226;21.254;2023-07-22T11:21:47;7.30;;;1.80;;
44987;SDS011;35735;52.226;21.254;2023-07-22T11:26:49;6.93;;;1.73;;
44987;SDS011;35735;52.226;21.254;2023-07-22T11:31:51;3.20;;;1.50;;
44987;SDS011;35735;52.226;21.254;2023-07-22T11:36:52;6.10;;;1.65;;
44987;SDS011;35735;52.226;21.254;2023-07-22T11:41:54;3.75;;;1.33;;
44987;SDS011;35735;52.226;21.254;2023-07-22T11:46:58;2.45;;;1.35;;
44987;SDS011;35735;52.226;21.254;2023-07-22T11:52:02;3.85;;;1.40;;
44987;SDS011;35735;52.226;21.254;2023-07-22T11:57:17;2.30;;;1.40;;
44987;SDS011;35735;52.226;21.254;2023-07-22T12:02:24;2.08;;;1.40;;
44987;SDS011;35735;52.226;21.254;2023-07-22T12:07:29;15.30;;;2.35;;
44987;SDS011;35735;52.226;21.254;2023-07-22T12:12:42;5.97;;;1.60;;
44987;SDS011;35735;52.226;21.254;2023-07-22T12:22:56;9.50;;;1.92;;
44987;SDS011;35735;52.226;21.254;2023-07-22T12:27:57;4.87;;;1.58;;
44987;SDS011;35735;52.226;21.254;2023-07-22T12:32:58;2.85;;;1.67;;
44987;SDS011;35735;52.226;21.254;2023-07-22T12:37:58;5.72;;;1.83;;
44987;SDS011;35735;52.226;21.254;2023-07-22T12:42:59;8.07;;;1.80;;
44987;SDS011;35735;52.226;21.254;2023-07-22T12:48:00;6.12;;;1.75;;
44987;SDS011;35735;52.226;21.254;2023-07-22T12:53:00;2.33;;;1.50;;
44987;SDS011;35735;52.226;21.254;2023-07-22T12:58:02;17.05;;;2.00;;
44987;SDS011;35735;52.226;21.254;2023-07-22T13:03:03;2.95;;;2.15;;
44987;SDS011;35735;52.226;21.254;2023-07-22T13:08:04;3.92;;;1.52;;
44987;SDS011;35735;52.226;21.254;2023-07-22T13:13:05;3.15;;;1.40;;
44987;SDS011;35735;52.226;21.254;2023-07-22T13:18:05;4.22;;;1.73;;
44987;SDS011;35735;52.226;21.254;2023-07-22T13:23:06;7.60;;;1.90;;
44987;SDS011;35735;52.226;21.254;2023-07-22T13:28:07;3.30;;;1.58;;
44987;SDS011;35735;52.226;21.254;2023-07-22T13:33:07;6.70;;;1.80;;
44987;SDS011;35735;52.226;21.254;2023-07-22T13:38:08;3.83;;;1.50;;
44987;SDS011;35735;52.226;21.254;2023-07-22T13:43:09;8.38;;;1.90;;
44987;SDS011;35735;52.226;21.254;2023-07-22T13:48:09;2.62;;;1.80;;
44987;SDS011;35735;52.226;21.254;2023-07-22T13:53:10;5.60;;;1.90;;
44987;SDS011;35735;52.226;21.254;2023-07-22T13:58:10;5.15;;;1.60;;
44987;SDS011;35735;52.226;21.254;2023-07-22T14:03:11;2.45;;;1.80;;
44987;SDS011;35735;52.226;21.254;2023-07-22T14:08:11;5.90;;;1.87;;
44987;SDS011;35735;52.226;21.254;2023-07-22T14:13:12;3.92;;;1.75;;
44987;SDS011;35735;52.226;21.254;2023-07-22T14:18:12;4.60;;;1.70;;
44987;SDS011;35735;52.226;21.254;2023-07-22T14:23:14;7.03;;;1.95;;
44987;SDS011;35735;52.226;21.254;2023-07-22T14:28:14;6.57;;;2.10;;
44987;SDS011;35735;52.226;21.254;2023-07-22T14:33:15;4.10;;;1.98;;
44987;SDS011;35735;52.226;21.254;2023-07-22T14:38:16;7.97;;;2.17;;
44987;SDS011;35735;52.226;21.254;2023-07-22T14:43:16;2.83;;;1.70;;
44987;SDS011;35735;52.226;21.254;2023-07-22T14:48:17;3.55;;;1.80;;
44987;SDS011;35735;52.226;21.254;2023-07-22T14:53:17;2.95;;;1.70;;
44987;SDS011;35735;52.226;21.254;2023-07-22T14:58:18;1.67;;;1.58;;
44987;SDS011;35735;52.226;21.254;2023-07-22T15:03:19;2.65;;;2.12;;
44987;SDS011;35735;52.226;21.254;2023-07-22T15:08:19;5.65;;;1.98;;
44987;SDS011;35735;52.226;21.254;2023-07-22T15:13:20;8.35;;;2.20;;
44987;SDS011;35735;52.226;21.254;2023-07-22T15:18:20;4.93;;;1.90;;
44987;SDS011;35735;52.226;21.254;2023-07-22T15:23:21;11.07;;;2.00;;
44987;SDS011;35735;52.226;21.254;2023-07-22T15:28:22;6.10;;;1.92;;
44987;SDS011;35735;52.226;21.254;2023-07-22T15:33:22;3.05;;;1.98;;
44987;SDS011;35735;52.226;21.254;2023-07-22T15:38:23;4.15;;;1.90;;
44987;SDS011;35735;52.226;21.254;2023-07-22T15:43:23;4.78;;;2.10;;
44987;SDS011;35735;52.226;21.254;2023-07-22T15:48:24;5.20;;;2.00;;
44987;SDS011;35735;52.226;21.254;2023-07-22T15:53:25;6.68;;;2.20;;
44987;SDS011;35735;52.226;21.254;2023-07-22T15:58:25;3.42;;;2.03;;
44987;SDS011;35735;52.226;21.254;2023-07-22T16:03:26;3.08;;;1.87;;
44987;SDS011;35735;52.226;21.254;2023-07-22T16:08:26;6.68;;;4.50;;
44987;SDS011;35735;52.226;21.254;2023-07-22T16:13:27;10.45;;;4.20;;
44987;SDS011;35735;52.226;21.254;2023-07-22T16:18:28;3.95;;;2.00;;
44987;SDS011;35735;52.226;21.254;2023-07-22T16:23:28;4.30;;;2.22;;
44987;SDS011;35735;52.226;21.254;2023-07-22T16:28:29;3.25;;;1.73;;
44987;SDS011;35735;52.226;21.254;2023-07-22T16:33:29;3.53;;;1.80;;
44987;SDS011;35735;52.226;21.254;2023-07-22T16:38:30;4.40;;;1.90;;
44987;SDS011;35735;52.226;21.254;2023-07-22T16:43:30;3.62;;;2.03;;
44987;SDS011;35735;52.226;21.254;2023-07-22T16:48:31;11.95;;;6.10;;
44987;SDS011;35735;52.226;21.254;2023-07-22T16:53:31;6.62;;;3.97;;
44987;SDS011;35735;52.226;21.254;2023-07-22T16:58:32;3.72;;;2.10;;
44987;SDS011;35735;52.226;21.254;2023-07-22T17:03:33;2.28;;;1.80;;
44987;SDS011;35735;52.226;21.254;2023-07-22T17:08:33;2.80;;;2.10;;
44987;SDS011;35735;52.226;21.254;2023-07-22T17:13:34;10.63;;;2.00;;
44987;SDS011;35735;52.226;21.254;2023-07-22T17:18:34;2.50;;;1.65;;
44987;SDS011;35735;52.226;21.254;2023-07-22T17:23:35;5.15;;;1.70;;
44987;SDS011;35735;52.226;21.254;2023-07-22T17:28:35;3.08;;;2.22;;
44987;SDS011;35735;52.226;21.254;2023-07-22T17:33:37;6.50;;;2.17;;
44987;SDS011;35735;52.226;21.254;2023-07-22T17:38:38;5.93;;;2.05;;
44987;SDS011;35735;52.226;21.254;2023-07-22T17:43:39;8.40;;;7.53;;
44987;SDS011;35735;52.226;21.254;2023-07-22T17:48:39;3.33;;;2.37;;
44987;SDS011;35735;52.226;21.254;2023-07-22T17:53:40;6.95;;;2.72;;
44987;SDS011;35735;52.226;21.254;2023-07-22T17:58:40;4.95;;;3.08;;
44987;SDS011;35735;52.226;21.254;2023-07-22T18:03:41;3.25;;;2.12;;
44987;SDS011;35735;52.226;21.254;2023-07-22T18:08:43;8.45;;;3.33;;
44987;SDS011;35735;52.226;21.254;2023-07-22T18:13:44;4.57;;;1.95;;
44987;SDS011;35735;52.226;21.254;2023-07-22T18:18:45;5.60;;;3.60;;
44987;SDS011;35735;52.226;21.254;2023-07-22T18:23:45;4.65;;;2.65;;
44987;SDS011;35735;52.226;21.254;2023-07-22T18:28:46;3.30;;;2.80;;
44987;SDS011;35735;52.226;21.254;2023-07-22T18:33:47;6.07;;;2.58;;
44987;SDS011;35735;52.226;21.254;2023-07-22T18:38:48;4.60;;;2.22;;
44987;SDS011;35735;52.226;21.254;2023-07-22T18:43:49;11.68;;;8.07;;
44987;SDS011;35735;52.226;21.254;2023-07-22T18:48:49;5.65;;;2.72;;
44987;SDS011;35735;52.226;21.254;2023-07-22T18:53:50;15.05;;;2.58;;
44987;SDS011;35735;52.226;21.254;2023-07-22T18:58:50;6.78;;;2.45;;
44987;SDS011;35735;52.226;21.254;2023-07-22T19:03:51;2.30;;;2.10;;
44987;SDS011;35735;52.226;21.254;2023-07-22T19:08:52;5.50;;;2.83;;
44987;SDS011;35735;52.226;21.254;2023-07-22T19:13:52;8.75;;;3.22;;
44987;SDS011;35735;52.226;21.254;2023-07-22T19:18:53;5.18;;;3.30;;
44987;SDS011;35735;52.226;21.254;2023-07-22T19:23:54;9.55;;;3.33;;
44987;SDS011;35735;52.226;21.254;2023-07-22T19:28:55;11.85;;;3.45;;
44987;SDS011;35735;52.226;21.254;2023-07-22T19:33:55;5.87;;;3.42;;
44987;SDS011;35735;52.226;21.254;2023-07-22T19:38:56;8.02;;;3.97;;
44987;SDS011;35735;52.226;21.254;2023-07-22T19:43:56;7.43;;;4.07;;
44987;SDS011;35735;52.226;21.254;2023-07-22T19:48:57;7.90;;;4.07;;
44987;SDS011;35735;52.226;21.254;2023-07-22T19:53:57;7.22;;;3.95;;
44987;SDS011;35735;52.226;21.254;2023-07-22T19:58:58;7.62;;;3.78;;
44987;SDS011;35735;52.226;21.254;2023-07-22T20:03:58;7.35;;;3.87;;
44987;SDS011;35735;52.226;21.254;2023-07-22T20:08:59;9.50;;;3.60;;
44987;SDS011;35735;52.226;21.254;2023-07-22T20:14:00;10.00;;;3.35;;
44987;SDS011;35735;52.226;21.254;2023-07-22T20:19:00;9.60;;;3.20;;
44987;SDS011;35735;52.226;21.254;2023-07-22T20:24:01;11.52;;;3.60;;
44987;SDS011;35735;52.226;21.254;2023-07-22T20:29:01;10.68;;;3.62;;
44987;SDS011;35735;52.226;21.254;2023-07-22T20:34:02;8.88;;;3.40;;
44987;SDS011;35735;52.226;21.254;2023-07-22T20:39:03;9.02;;;3.50;;
44987;SDS011;35735;52.226;21.254;2023-07-22T20:44:04;7.72;;;3.67;;
44987;SDS011;35735;52.226;21.254;2023-07-22T20:49:04;21.40;;;4.18;;
44987;SDS011;35735;52.226;21.254;2023-07-22T20:54:05;9.93;;;4.07;;
44987;SDS011;35735;52.226;21.254;2023-07-22T20:59:06;13.32;;;4.10;;
44987;SDS011;35735;52.226;21.254;2023-07-22T21:04:06;8.68;;;3.35;;
44987;SDS011;35735;52.226;21.254;2023-07-22T21:09:07;5.97;;;3.70;;
44987;SDS011;35735;52.226;21.254;2023-07-22T21:14:07;8.48;;;3.90;;
44987;SDS011;35735;52.226;21.254;2023-07-22T21:19:08;8.35;;;4.43;;
44987;SDS011;35735;52.226;21.254;2023-07-22T21:24:08;9.98;;;4.32;;
44987;SDS011;35735;52.226;21.254;2023-07-22T21:29:09;7.03;;;4.72;;
44987;SDS011;35735;52.226;21.254;2023-07-22T21:34:10;9.68;;;4.87;;
44987;SDS011;35735;52.226;21.254;2023-07-22T21:39:10;8.05;;;4.50;;
44987;SDS011;35735;52.226;21.254;2023-07-22T21:44:11;7.50;;;4.57;;
44987;SDS011;35735;52.226;21.254;2023-07-22T21:49:12;8.43;;;4.43;;
44987;SDS011;35735;52.226;21.254;2023-07-22T21:54:13;5.37;;;4.30;;
44987;SDS011;35735;52.226;21.254;2023-07-22T21:59:14;6.60;;;4.57;;
44987;SDS011;35735;52.226;21.254;2023-07-22T22:04:14;8.02;;;4.68;;
44987;SDS011;35735;52.226;21.254;2023-07-22T22:09:15;5.95;;;3.85;;
44987;SDS011;35735;52.226;21.254;2023-07-22T22:14:15;10.07;;;4.55;;
44987;SDS011;35735;52.226;21.254;2023-07-22T22:19:16;7.37;;;3.92;;
44987;SDS011;35735;52.226;21.254;2023-07-22T22:24:17;11.20;;;4.00;;
44987;SDS011;35735;52.226;21.254;2023-07-22T22:29:18;9.07;;;4.30;;
44987;SDS011;35735;52.226;21.254;2023-07-22T22:34:18;7.70;;;4.10;;
44987;SDS011;35735;52.226;21.254;2023-07-22T22:39:19;10.10;;;4.68;;
44987;SDS011;35735;52.226;21.254;2023-07-22T22:44:19;9.25;;;5.53;;
44987;SDS011;35735;52.226;21.254;2023-07-22T22:49:20;14.23;;;5.05;;
44987;SDS011;35735;52.226;21.254;2023-07-22T22:54:20;20.45;;;5.65;;
44987;SDS011;35735;52.226;21.254;2023-07-22T22:59:21;12.32;;;4.87;;
44987;SDS011;35735;52.226;21.254;2023-07-22T23:04:21;15.10;;;5.07;;
44987;SDS011;35735;52.226;21.254;2023-07-22T23:09:22;11.35;;;4.68;;
44987;SDS011;35735;52.226;21.254;2023-07-22T23:14:23;17.85;;;5.55;;
44987;SDS011;35735;52.226;21.254;2023-07-22T23:19:24;11.63;;;4.78;;
44987;SDS011;35735;52.226;21.254;2023-07-22T23:24:24;13.07;;;4.62;;
44987;SDS011;35735;52.226;21.254;2023-07-22T23:29:25;8.70;;;4.80;;
44987;SDS011;35735;52.226;21.254;2023-07-22T23:34:25;9.60;;;4.75;;
44987;SDS011;35735;52.226;21.254;2023-07-22T23:39:26;9.60;;;4.80;;
44987;SDS011;35735;52.226;21.254;2023-07-22T23:44:26;9.25;;;5.15;;
44987;SDS011;35735;52.226;21.254;2023-07-22T23:49:27;6.20;;;4.65;;
44987;SDS011;35735;52.226;21.254;2023-07-22T23:54:28;7.90;;;4.90;;
44987;SDS011;35735;52.226;21.254;2023-07-22T23:59:28;8.98;;;5.10;;
